createdAt,value
2017-12-09T00:01:07.153Z,0
2017-12-09T00:02:28.877Z,0
2017-12-09T00:03:50.625Z,0
2017-12-09T00:05:12.364Z,0
2017-12-09T00:06:34.347Z,0
2017-12-09T00:07:56.324Z,0
2017-12-09T00:09:18.564Z,0
2017-12-09T00:10:40.536Z,0
2017-12-09T00:12:02.824Z,0
2017-12-09T00:13:25.000Z,0
2017-12-09T00:14:46.734Z,0
2017-12-09T00:16:08.429Z,0
2017-12-09T00:17:30.406Z,0
2017-12-09T00:18:52.125Z,0
2017-12-09T00:20:14.106Z,0
2017-12-09T00:21:35.654Z,0
2017-12-09T00:22:57.368Z,0
2017-12-09T00:24:19.344Z,0
2017-12-09T00:25:41.848Z,0
2017-12-09T00:27:03.825Z,0
2017-12-09T00:28:25.851Z,0
2017-12-09T00:29:47.294Z,0
2017-12-09T00:31:08.555Z,0
2017-12-09T00:32:30.565Z,0
2017-12-09T00:33:52.265Z,0
2017-12-09T00:35:14.214Z,0
2017-12-09T00:36:36.849Z,0
2017-12-09T00:37:59.114Z,0
2017-12-09T00:39:21.196Z,0
2017-12-09T00:40:42.874Z,0
2017-12-09T00:42:04.578Z,0
2017-12-09T00:43:26.551Z,0
2017-12-09T00:44:48.894Z,0
2017-12-09T00:46:11.005Z,0
2017-12-09T00:47:33.247Z,0
2017-12-09T00:48:54.946Z,0
2017-12-09T00:50:17.264Z,0
2017-12-09T00:51:38.695Z,0
2017-12-09T00:53:01.047Z,0
2017-12-09T00:54:23.374Z,0
2017-12-09T00:55:45.355Z,0
2017-12-09T00:57:07.315Z,0
2017-12-09T00:58:28.476Z,0
2017-12-09T00:59:50.186Z,0
2017-12-09T01:01:11.340Z,0
2017-12-09T01:02:33.356Z,0
2017-12-09T01:03:55.419Z,0
2017-12-09T01:05:17.382Z,0
2017-12-09T01:06:39.634Z,0
2017-12-09T01:08:01.136Z,0
2017-12-09T01:09:23.355Z,0
2017-12-09T01:10:45.600Z,0
2017-12-09T01:12:07.954Z,0
2017-12-09T01:13:30.211Z,0
2017-12-09T01:14:52.244Z,0
2017-12-09T01:16:13.685Z,0
2017-12-09T01:17:35.374Z,0
2017-12-09T01:18:57.067Z,0
2017-12-09T01:20:19.024Z,0
2017-12-09T01:21:40.747Z,0
2017-12-09T01:23:02.856Z,0
2017-12-09T01:24:24.625Z,0
2017-12-09T01:25:46.356Z,0
2017-12-09T01:27:07.796Z,0
2017-12-09T01:28:30.205Z,0
2017-12-09T01:29:51.638Z,0
2017-12-09T01:31:13.335Z,0
2017-12-09T01:32:35.326Z,0
2017-12-09T01:33:57.582Z,0
2017-12-09T01:35:19.415Z,0
2017-12-09T01:36:41.678Z,0
2017-12-09T01:38:03.375Z,0
2017-12-09T01:39:25.395Z,0
2017-12-09T01:40:47.639Z,0
2017-12-09T01:42:09.663Z,0
2017-12-09T01:43:31.087Z,0
2017-12-09T01:44:53.085Z,0
2017-12-09T01:46:15.135Z,0
2017-12-09T01:47:37.082Z,0
2017-12-09T01:48:59.121Z,0
2017-12-09T01:50:21.081Z,0
2017-12-09T01:51:42.765Z,0
2017-12-09T01:53:04.778Z,0
2017-12-09T01:54:27.154Z,0
2017-12-09T01:55:48.918Z,0
2017-12-09T01:57:11.133Z,0
2017-12-09T01:58:32.825Z,0
2017-12-09T01:59:54.787Z,0
2017-12-09T02:01:16.500Z,0
2017-12-09T02:02:38.464Z,0
2017-12-09T02:04:00.404Z,0
2017-12-09T02:05:21.943Z,0
2017-12-09T02:06:43.985Z,0
2017-12-09T02:08:05.673Z,0
2017-12-09T02:09:27.752Z,0
2017-12-09T02:10:49.445Z,0
2017-12-09T02:12:11.539Z,0
2017-12-09T02:13:33.777Z,0
2017-12-09T02:14:55.774Z,0
2017-12-09T02:16:17.254Z,0
2017-12-09T02:17:39.225Z,0
2017-12-09T02:19:01.453Z,0
2017-12-09T02:20:23.204Z,0
2017-12-09T02:21:45.357Z,0
2017-12-09T02:23:06.778Z,0
2017-12-09T02:24:28.554Z,0
2017-12-09T02:25:50.821Z,0
2017-12-09T02:27:12.912Z,0
2017-12-09T02:28:34.599Z,0
2017-12-09T02:29:56.286Z,0
2017-12-09T02:31:18.789Z,0
2017-12-09T02:32:40.466Z,0
2017-12-09T02:34:02.236Z,0
2017-12-09T02:35:23.674Z,0
2017-12-09T02:36:45.675Z,0
2017-12-09T02:38:06.585Z,0
2017-12-09T02:39:27.786Z,0
2017-12-09T02:40:49.212Z,0
2017-12-09T02:42:10.366Z,0
2017-12-09T02:43:32.169Z,0
2017-12-09T02:44:54.134Z,0
2017-12-09T02:46:15.811Z,0
2017-12-09T02:47:37.284Z,0
2017-12-09T02:48:59.283Z,0
2017-12-09T02:50:20.973Z,0
2017-12-09T02:51:42.667Z,0
2017-12-09T02:53:04.636Z,0
2017-12-09T02:54:27.094Z,0
2017-12-09T02:55:48.805Z,0
2017-12-09T02:57:10.607Z,0
2017-12-09T02:58:32.535Z,0
2017-12-09T02:59:54.516Z,0
2017-12-09T03:01:15.948Z,0
2017-12-09T03:02:38.204Z,0
2017-12-09T03:03:59.105Z,0
2017-12-09T03:05:20.867Z,0
2017-12-09T03:06:42.314Z,0
2017-12-09T03:08:04.016Z,0
2017-12-09T03:09:25.716Z,0
2017-12-09T03:10:47.681Z,0
2017-12-09T03:12:09.743Z,0
2017-12-09T03:13:31.734Z,0
2017-12-09T03:14:53.175Z,0
2017-12-09T03:16:14.853Z,0
2017-12-09T03:17:36.636Z,0
2017-12-09T03:18:58.599Z,0
2017-12-09T03:20:20.836Z,0
2017-12-09T03:21:42.258Z,0
2017-12-09T03:23:04.214Z,0
2017-12-09T03:24:25.626Z,0
2017-12-09T03:25:47.306Z,0
2017-12-09T03:27:08.715Z,0
2017-12-09T03:28:30.424Z,0
2017-12-09T03:29:52.111Z,0
2017-12-09T03:31:14.045Z,0
2017-12-09T03:32:35.748Z,0
2017-12-09T03:33:57.683Z,0
2017-12-09T03:35:19.636Z,0
2017-12-09T03:36:41.965Z,0
2017-12-09T03:38:03.675Z,0
2017-12-09T03:39:25.194Z,0
2017-12-09T03:40:47.387Z,0
2017-12-09T03:42:08.824Z,0
2017-12-09T03:43:30.760Z,0
2017-12-09T03:44:52.556Z,0
2017-12-09T03:46:14.534Z,0
2017-12-09T03:47:36.215Z,0
2017-12-09T03:48:58.457Z,0
2017-12-09T03:50:20.408Z,0
2017-12-09T03:51:42.545Z,0
2017-12-09T03:53:04.044Z,0
2017-12-09T03:54:26.002Z,0
2017-12-09T03:55:47.963Z,0
2017-12-09T03:57:09.128Z,0
2017-12-09T03:58:30.885Z,0
2017-12-09T03:59:52.634Z,0
2017-12-09T04:01:14.156Z,0
2017-12-09T04:02:36.118Z,0
2017-12-09T04:03:57.815Z,0
2017-12-09T04:05:19.284Z,0
2017-12-09T04:06:41.353Z,0
2017-12-09T04:08:03.041Z,0
2017-12-09T04:09:24.202Z,0
2017-12-09T04:10:45.913Z,0
2017-12-09T04:12:07.055Z,0
2017-12-09T04:13:28.466Z,0
2017-12-09T04:14:49.903Z,0
2017-12-09T04:16:11.863Z,0
2017-12-09T04:17:33.285Z,0
2017-12-09T04:18:54.434Z,0
2017-12-09T04:20:16.144Z,0
2017-12-09T04:21:37.854Z,0
2017-12-09T04:22:59.804Z,0
2017-12-09T04:24:21.775Z,0
2017-12-09T04:25:42.947Z,0
2017-12-09T04:27:04.654Z,0
2017-12-09T04:28:26.893Z,0
2017-12-09T04:29:48.328Z,0
2017-12-09T04:31:10.543Z,0
2017-12-09T04:32:32.785Z,0
2017-12-09T04:33:54.486Z,0
2017-12-09T04:35:16.014Z,0
2017-12-09T04:36:37.461Z,0
2017-12-09T04:37:59.438Z,0
2017-12-09T04:39:21.234Z,0
2017-12-09T04:40:43.465Z,0
2017-12-09T04:42:04.884Z,0
2017-12-09T04:43:26.579Z,0
2017-12-09T04:44:48.264Z,0
2017-12-09T04:46:10.234Z,0
2017-12-09T04:47:31.914Z,0
2017-12-09T04:48:54.144Z,0
2017-12-09T04:50:15.913Z,0
2017-12-09T04:51:38.183Z,0
2017-12-09T04:52:59.697Z,0
2017-12-09T04:54:21.994Z,0
2017-12-09T04:55:44.003Z,0
2017-12-09T04:57:05.874Z,0
2017-12-09T04:58:28.098Z,0
2017-12-09T04:59:50.104Z,0
2017-12-09T05:01:12.115Z,0
2017-12-09T05:02:33.826Z,0
2017-12-09T05:03:55.782Z,0
2017-12-09T05:05:17.207Z,0
2017-12-09T05:06:38.624Z,0
2017-12-09T05:08:00.063Z,0
2017-12-09T05:09:21.755Z,0
2017-12-09T05:10:44.291Z,0
2017-12-09T05:12:06.001Z,0
2017-12-09T05:13:27.974Z,0
2017-12-09T05:14:49.936Z,0
2017-12-09T05:16:11.756Z,0
2017-12-09T05:17:33.488Z,0
2017-12-09T05:18:55.434Z,0
2017-12-09T05:20:17.105Z,0
2017-12-09T05:21:39.185Z,0
2017-12-09T05:23:00.877Z,0
2017-12-09T05:24:23.100Z,0
2017-12-09T05:25:45.417Z,0
2017-12-09T05:27:07.443Z,0
2017-12-09T05:28:29.173Z,0
2017-12-09T05:29:50.851Z,0
2017-12-09T05:31:11.985Z,0
2017-12-09T05:32:33.933Z,0
2017-12-09T05:33:55.409Z,0
2017-12-09T05:35:17.364Z,0
2017-12-09T05:36:39.174Z,0
2017-12-09T05:38:00.613Z,0
2017-12-09T05:39:22.562Z,0
2017-12-09T05:40:44.534Z,0
2017-12-09T05:42:05.974Z,0
2017-12-09T05:43:27.255Z,0
2017-12-09T05:44:49.065Z,0
2017-12-09T05:46:10.827Z,0
2017-12-09T05:47:32.844Z,0
2017-12-09T05:48:54.889Z,0
2017-12-09T05:50:16.750Z,0
2017-12-09T05:51:38.704Z,0
2017-12-09T05:53:01.022Z,0
2017-12-09T05:54:22.773Z,0
2017-12-09T05:55:44.583Z,0
2017-12-09T05:57:06.293Z,0
2017-12-09T05:58:27.974Z,0
2017-12-09T05:59:49.434Z,0
2017-12-09T06:01:11.195Z,0
2017-12-09T06:02:32.956Z,0
2017-12-09T06:03:54.717Z,0
2017-12-09T06:05:17.000Z,0
2017-12-09T06:06:38.964Z,0
2017-12-09T06:08:00.214Z,0
2017-12-09T06:09:21.377Z,0
2017-12-09T06:10:43.082Z,0
2017-12-09T06:12:05.043Z,0
2017-12-09T06:13:26.992Z,0
2017-12-09T06:14:49.294Z,0
2017-12-09T06:16:11.104Z,0
2017-12-09T06:17:33.258Z,0
2017-12-09T06:18:55.236Z,0
2017-12-09T06:20:17.197Z,0
2017-12-09T06:21:39.025Z,0
2017-12-09T06:23:00.846Z,0
2017-12-09T06:24:22.613Z,0
2017-12-09T06:25:44.612Z,0
2017-12-09T06:27:07.027Z,0
2017-12-09T06:28:28.995Z,0
2017-12-09T06:29:51.215Z,0
2017-12-09T06:31:12.930Z,0
2017-12-09T06:32:34.674Z,0
2017-12-09T06:33:56.468Z,0
2017-12-09T06:35:18.792Z,0
2017-12-09T06:36:40.872Z,0
2017-12-09T06:38:01.756Z,0
2017-12-09T06:39:23.726Z,0
2017-12-09T06:40:45.944Z,0
2017-12-09T06:42:07.913Z,0
2017-12-09T06:43:29.615Z,0
2017-12-09T06:44:51.058Z,0
2017-12-09T06:46:13.295Z,0
2017-12-09T06:47:35.294Z,0
2017-12-09T06:48:57.444Z,4
2017-12-09T06:50:19.407Z,4
2017-12-09T06:51:41.375Z,4
2017-12-09T06:53:03.075Z,4
2017-12-09T06:54:25.468Z,4
2017-12-09T06:55:47.165Z,4
2017-12-09T06:57:08.998Z,8
2017-12-09T06:58:31.346Z,8
2017-12-09T06:59:52.772Z,12
2017-12-09T07:01:13.923Z,12
2017-12-09T07:02:35.946Z,16
2017-12-09T07:03:57.645Z,20
2017-12-09T07:05:19.405Z,16
2017-12-09T07:06:41.461Z,16
2017-12-09T07:08:03.537Z,20
2017-12-09T07:09:24.975Z,32
2017-12-09T07:10:46.954Z,40
2017-12-09T07:12:08.694Z,52
2017-12-09T07:13:30.404Z,68
2017-12-09T07:14:51.572Z,80
2017-12-09T07:16:13.535Z,92
2017-12-09T07:17:35.516Z,104
2017-12-09T07:18:57.484Z,116
2017-12-09T07:20:19.385Z,128
2017-12-09T07:21:41.067Z,140
2017-12-09T07:23:02.556Z,168
2017-12-09T07:24:23.980Z,192
2017-12-09T07:25:46.015Z,208
2017-12-09T07:27:08.265Z,232
2017-12-09T07:28:30.326Z,256
2017-12-09T07:29:52.318Z,268
2017-12-09T07:31:14.791Z,300
2017-12-09T07:32:35.951Z,332
2017-12-09T07:33:57.684Z,340
2017-12-09T07:35:19.701Z,376
2017-12-09T07:36:41.136Z,388
2017-12-09T07:38:02.970Z,408
2017-12-09T07:39:24.726Z,440
2017-12-09T07:40:46.724Z,460
2017-12-09T07:42:08.795Z,504
2017-12-09T07:43:30.476Z,556
2017-12-09T07:44:52.166Z,552
2017-12-09T07:46:13.786Z,528
2017-12-09T07:47:35.265Z,500
2017-12-09T07:48:56.697Z,524
2017-12-09T07:50:18.415Z,608
2017-12-09T07:51:40.173Z,668
2017-12-09T07:53:02.304Z,760
2017-12-09T07:54:23.753Z,912
2017-12-09T07:55:45.998Z,1000
2017-12-09T07:57:08.434Z,1220
2017-12-09T07:58:30.677Z,1336
2017-12-09T07:59:52.182Z,1252
2017-12-09T08:01:14.165Z,1176
2017-12-09T08:02:35.594Z,1172
2017-12-09T08:03:57.007Z,1164
2017-12-09T08:05:18.751Z,1292
2017-12-09T08:06:40.476Z,1436
2017-12-09T08:08:01.917Z,1328
2017-12-09T08:09:24.146Z,1340
2017-12-09T08:10:46.124Z,1388
2017-12-09T08:12:08.164Z,1456
2017-12-09T08:13:30.167Z,1524
2017-12-09T08:14:51.894Z,1580
2017-12-09T08:16:13.596Z,1624
2017-12-09T08:17:35.577Z,1664
2017-12-09T08:18:57.644Z,1688
2017-12-09T08:20:19.624Z,1716
2017-12-09T08:21:41.324Z,1780
2017-12-09T08:23:03.421Z,1864
2017-12-09T08:24:25.398Z,1940
2017-12-09T08:25:46.854Z,2016
2017-12-09T08:27:08.673Z,2124
2017-12-09T08:28:30.106Z,2224
2017-12-09T08:29:52.055Z,2280
2017-12-09T08:31:13.800Z,2336
2017-12-09T08:32:35.818Z,2404
2017-12-09T08:33:57.786Z,2432
2017-12-09T08:35:19.506Z,2460
2017-12-09T08:36:41.216Z,2468
2017-12-09T08:38:03.236Z,2508
2017-12-09T08:39:25.316Z,2552
2017-12-09T08:40:46.751Z,2588
2017-12-09T08:42:08.504Z,2624
2017-12-09T08:43:30.209Z,2640
2017-12-09T08:44:51.925Z,2652
2017-12-09T08:46:13.626Z,2668
2017-12-09T08:47:35.885Z,2712
2017-12-09T08:48:57.857Z,2748
2017-12-09T08:50:19.564Z,2788
2017-12-09T08:51:40.746Z,2832
2017-12-09T08:53:02.716Z,2880
2017-12-09T08:54:24.561Z,2872
2017-12-09T08:55:46.646Z,2896
2017-12-09T08:57:08.426Z,2928
2017-12-09T08:58:30.412Z,2944
2017-12-09T08:59:52.388Z,2964
2017-12-09T09:01:14.610Z,2984
2017-12-09T09:02:36.608Z,3004
2017-12-09T09:03:58.618Z,3020
2017-12-09T09:05:20.345Z,3032
2017-12-09T09:06:42.334Z,3060
2017-12-09T09:08:04.095Z,3080
2017-12-09T09:09:26.176Z,3084
2017-12-09T09:10:48.215Z,3120
2017-12-09T09:12:09.907Z,3160
2017-12-09T09:13:31.396Z,3172
2017-12-09T09:14:53.596Z,3184
2017-12-09T09:16:15.944Z,3200
2017-12-09T09:17:37.649Z,3220
2017-12-09T09:18:59.427Z,3256
2017-12-09T09:20:21.563Z,3320
2017-12-09T09:21:43.797Z,3424
2017-12-09T09:23:05.493Z,3568
2017-12-09T09:24:27.195Z,3720
2017-12-09T09:25:48.628Z,4084
2017-12-09T09:27:10.447Z,4792
2017-12-09T09:28:32.207Z,6288
2017-12-09T09:29:54.195Z,7236
2017-12-09T09:31:16.118Z,7624
2017-12-09T09:32:37.607Z,5948
2017-12-09T09:33:59.317Z,3648
2017-12-09T09:35:21.544Z,2576
2017-12-09T09:36:43.266Z,2292
2017-12-09T09:38:04.975Z,2504
2017-12-09T09:39:26.795Z,2552
2017-12-09T09:40:48.038Z,2644
2017-12-09T09:42:10.521Z,2672
2017-12-09T09:43:32.756Z,2676
2017-12-09T09:44:54.936Z,2724
2017-12-09T09:46:16.430Z,2792
2017-12-09T09:47:38.495Z,2904
2017-12-09T09:49:00.717Z,3092
2017-12-09T09:50:22.425Z,3228
2017-12-09T09:51:44.619Z,3300
2017-12-09T09:53:06.459Z,3348
2017-12-09T09:54:28.835Z,3372
2017-12-09T09:55:50.613Z,3396
2017-12-09T09:57:12.096Z,3400
2017-12-09T09:58:34.375Z,3428
2017-12-09T09:59:56.507Z,3468
2017-12-09T10:01:18.797Z,3480
2017-12-09T10:02:40.798Z,3552
2017-12-09T10:04:02.845Z,3580
2017-12-09T10:05:24.849Z,3576
2017-12-09T10:06:46.574Z,3552
2017-12-09T10:08:08.616Z,3584
2017-12-09T10:09:30.942Z,3600
2017-12-09T10:10:53.245Z,3604
2017-12-09T10:12:15.559Z,3612
2017-12-09T10:13:37.260Z,3620
2017-12-09T10:14:58.976Z,3680
2017-12-09T10:16:20.690Z,3728
2017-12-09T10:17:43.073Z,3784
2017-12-09T10:19:05.041Z,3884
2017-12-09T10:20:27.020Z,4140
2017-12-09T10:21:49.362Z,5212
2017-12-09T10:23:10.808Z,6632
2017-12-09T10:24:32.775Z,5792
2017-12-09T10:25:55.015Z,4244
2017-12-09T10:27:16.987Z,3836
2017-12-09T10:28:38.725Z,3852
2017-12-09T10:30:00.759Z,3632
2017-12-09T10:31:22.495Z,3356
2017-12-09T10:32:44.511Z,3208
2017-12-09T10:34:06.310Z,3288
2017-12-09T10:35:28.015Z,3472
2017-12-09T10:36:50.324Z,3612
2017-12-09T10:38:12.625Z,3620
2017-12-09T10:39:34.866Z,3592
2017-12-09T10:40:56.860Z,3636
2017-12-09T10:42:18.584Z,3676
2017-12-09T10:43:40.076Z,3676
2017-12-09T10:45:02.178Z,3688
2017-12-09T10:46:24.433Z,3692
2017-12-09T10:47:46.424Z,3708
2017-12-09T10:49:08.125Z,3716
2017-12-09T10:50:30.385Z,3660
2017-12-09T10:51:52.084Z,3560
2017-12-09T10:53:13.786Z,3504
2017-12-09T10:54:35.494Z,3592
2017-12-09T10:55:57.476Z,3656
2017-12-09T10:57:19.811Z,3744
2017-12-09T10:58:42.056Z,3676
2017-12-09T11:00:04.081Z,3644
2017-12-09T11:01:25.962Z,3592
2017-12-09T11:02:47.681Z,3600
2017-12-09T11:04:09.664Z,3632
2017-12-09T11:05:31.396Z,3668
2017-12-09T11:06:53.516Z,3644
2017-12-09T11:08:15.254Z,3616
2017-12-09T11:09:37.494Z,3624
2017-12-09T11:10:59.912Z,3636
2017-12-09T11:12:22.156Z,3696
2017-12-09T11:13:44.444Z,3700
2017-12-09T11:15:06.712Z,3656
2017-12-09T11:16:28.708Z,3696
2017-12-09T11:17:50.960Z,3940
2017-12-09T11:19:12.118Z,4516
2017-12-09T11:20:34.078Z,4920
2017-12-09T11:21:55.524Z,5228
2017-12-09T11:23:17.536Z,5680
2017-12-09T11:24:39.549Z,6100
2017-12-09T11:26:01.355Z,6412
2017-12-09T11:27:22.535Z,6728
2017-12-09T11:28:44.544Z,7084
2017-12-09T11:30:06.603Z,7476
2017-12-09T11:31:28.915Z,7876
2017-12-09T11:32:51.168Z,8220
2017-12-09T11:34:13.346Z,8464
2017-12-09T11:35:34.791Z,8540
2017-12-09T11:36:56.244Z,8232
2017-12-09T11:38:18.232Z,7468
2017-12-09T11:39:39.956Z,6248
2017-12-09T11:41:01.508Z,4876
2017-12-09T11:42:23.507Z,3732
2017-12-09T11:43:45.876Z,2900
2017-12-09T11:45:08.179Z,2288
2017-12-09T11:46:29.694Z,1896
2017-12-09T11:47:52.035Z,1416
2017-12-09T11:49:13.475Z,1352
2017-12-09T11:50:35.536Z,1896
2017-12-09T11:51:57.844Z,2368
2017-12-09T11:53:19.601Z,2364
2017-12-09T11:54:41.578Z,2328
2017-12-09T11:56:03.016Z,2292
2017-12-09T11:57:25.093Z,2976
2017-12-09T11:58:47.116Z,3848
2017-12-09T12:00:09.098Z,4268
2017-12-09T12:01:31.345Z,4668
2017-12-09T12:02:53.336Z,4660
2017-12-09T12:04:15.315Z,4344
2017-12-09T12:05:37.020Z,4228
2017-12-09T12:06:58.839Z,3712
2017-12-09T12:08:20.826Z,3248
2017-12-09T12:09:42.693Z,3096
2017-12-09T12:11:05.054Z,3008
2017-12-09T12:12:27.444Z,2820
2017-12-09T12:13:49.408Z,2756
2017-12-09T12:15:11.377Z,2680
2017-12-09T12:16:33.656Z,2600
2017-12-09T12:17:55.738Z,2396
2017-12-09T12:19:17.499Z,2164
2017-12-09T12:20:39.570Z,1808
2017-12-09T12:22:01.544Z,1420
2017-12-09T12:23:23.824Z,1192
2017-12-09T12:24:45.877Z,1060
2017-12-09T12:26:08.396Z,1284
2017-12-09T12:27:30.354Z,2232
2017-12-09T12:28:52.450Z,2832
2017-12-09T12:30:14.575Z,3040
2017-12-09T12:31:36.565Z,3092
2017-12-09T12:32:58.533Z,3112
2017-12-09T12:34:20.264Z,3128
2017-12-09T12:35:42.259Z,3144
2017-12-09T12:37:04.664Z,3180
2017-12-09T12:38:26.650Z,3144
2017-12-09T12:39:48.686Z,2956
2017-12-09T12:41:10.954Z,2228
2017-12-09T12:42:32.726Z,2088
2017-12-09T12:43:54.511Z,2272
2017-12-09T12:45:16.891Z,2372
2017-12-09T12:46:39.011Z,2608
2017-12-09T12:48:01.298Z,2784
2017-12-09T12:49:23.577Z,2708
2017-12-09T12:50:45.296Z,2096
2017-12-09T12:52:07.556Z,2268
2017-12-09T12:53:29.618Z,2876
2017-12-09T12:54:51.905Z,2884
2017-12-09T12:56:14.053Z,2660
2017-12-09T12:57:36.078Z,2352
2017-12-09T12:58:58.553Z,2352
2017-12-09T13:00:20.306Z,2200
2017-12-09T13:01:42.846Z,2244
2017-12-09T13:03:04.571Z,2320
2017-12-09T13:04:26.571Z,2680
2017-12-09T13:05:48.824Z,2708
2017-12-09T13:07:11.102Z,2048
2017-12-09T13:08:33.615Z,1760
2017-12-09T13:09:55.106Z,2244
2017-12-09T13:11:16.581Z,2784
2017-12-09T13:12:38.295Z,3028
2017-12-09T13:14:00.296Z,3308
2017-12-09T13:15:21.872Z,3320
2017-12-09T13:16:43.666Z,3328
2017-12-09T13:18:05.653Z,3244
2017-12-09T13:19:27.096Z,3012
2017-12-09T13:20:49.395Z,2816
2017-12-09T13:22:11.976Z,2668
2017-12-09T13:23:34.267Z,2480
2017-12-09T13:24:56.347Z,2324
2017-12-09T13:26:18.325Z,2224
2017-12-09T13:27:40.844Z,2172
2017-12-09T13:29:02.946Z,2148
2017-12-09T13:30:24.924Z,2176
2017-12-09T13:31:47.201Z,2264
2017-12-09T13:33:09.626Z,2388
2017-12-09T13:34:31.377Z,2540
2017-12-09T13:35:53.894Z,2748
2017-12-09T13:37:15.940Z,3004
2017-12-09T13:38:38.282Z,3488
2017-12-09T13:40:00.282Z,4100
2017-12-09T13:41:22.025Z,4336
2017-12-09T13:42:44.316Z,4316
2017-12-09T13:44:06.383Z,3796
2017-12-09T13:45:28.679Z,3036
2017-12-09T13:46:50.984Z,1952
2017-12-09T13:48:13.264Z,988
2017-12-09T13:49:35.538Z,1372
2017-12-09T13:50:57.819Z,1624
2017-12-09T13:52:19.895Z,1532
2017-12-09T13:53:42.157Z,1312
2017-12-09T13:55:04.220Z,1696
2017-12-09T13:56:25.966Z,1740
2017-12-09T13:57:48.170Z,2764
2017-12-09T13:59:10.160Z,2904
2017-12-09T14:00:32.164Z,1664
2017-12-09T14:01:54.165Z,1180
2017-12-09T14:03:15.930Z,1060
2017-12-09T14:04:37.952Z,880
2017-12-09T14:05:59.956Z,948
2017-12-09T14:07:21.989Z,1348
2017-12-09T14:08:43.995Z,1324
2017-12-09T14:10:06.086Z,944
2017-12-09T14:11:28.375Z,920
2017-12-09T14:12:50.385Z,1164
2017-12-09T14:14:11.973Z,1440
2017-12-09T14:15:34.110Z,1496
2017-12-09T14:16:55.565Z,2032
2017-12-09T14:18:17.539Z,2280
2017-12-09T14:19:39.295Z,2104
2017-12-09T14:21:01.887Z,1764
2017-12-09T14:22:23.895Z,1592
2017-12-09T14:23:46.154Z,1704
2017-12-09T14:25:07.875Z,1488
2017-12-09T14:26:30.113Z,1308
2017-12-09T14:27:51.865Z,1012
2017-12-09T14:29:13.643Z,660
2017-12-09T14:30:35.676Z,636
2017-12-09T14:31:57.157Z,344
2017-12-09T14:33:19.450Z,248
2017-12-09T14:34:41.591Z,324
2017-12-09T14:36:03.910Z,332
2017-12-09T14:37:26.280Z,556
2017-12-09T14:38:48.016Z,608
2017-12-09T14:40:10.299Z,588
2017-12-09T14:41:32.581Z,396
2017-12-09T14:42:54.947Z,232
2017-12-09T14:44:16.933Z,172
2017-12-09T14:45:39.008Z,256
2017-12-09T14:47:01.274Z,372
2017-12-09T14:48:23.186Z,396
2017-12-09T14:49:45.017Z,344
2017-12-09T14:51:07.291Z,260
2017-12-09T14:52:28.482Z,188
2017-12-09T14:53:50.315Z,148
2017-12-09T14:55:12.145Z,108
2017-12-09T14:56:34.515Z,100
2017-12-09T14:57:55.968Z,96
2017-12-09T14:59:17.963Z,88
2017-12-09T15:00:40.371Z,68
2017-12-09T15:02:02.399Z,60
2017-12-09T15:03:24.793Z,44
2017-12-09T15:04:46.777Z,32
2017-12-09T15:06:08.796Z,32
2017-12-09T15:07:31.033Z,32
2017-12-09T15:08:53.281Z,28
2017-12-09T15:10:15.265Z,32
2017-12-09T15:11:37.612Z,16
2017-12-09T15:12:59.618Z,12
2017-12-09T15:14:21.749Z,8
2017-12-09T15:15:44.012Z,8
2017-12-09T15:17:05.748Z,8
2017-12-09T15:18:27.774Z,4
2017-12-09T15:19:50.046Z,4
2017-12-09T15:21:12.747Z,4
2017-12-09T15:22:34.743Z,4
2017-12-09T15:23:56.998Z,4
2017-12-09T15:25:19.008Z,4
2017-12-09T15:26:40.724Z,4
2017-12-09T15:28:02.458Z,4
2017-12-09T15:29:24.512Z,0
2017-12-09T15:30:46.800Z,0
2017-12-09T15:32:08.859Z,0
2017-12-09T15:33:31.144Z,0
2017-12-09T15:34:52.706Z,0
2017-12-09T15:36:15.090Z,0
2017-12-09T15:37:36.812Z,0
2017-12-09T15:38:59.278Z,0
2017-12-09T15:40:21.326Z,0
2017-12-09T15:41:43.653Z,12
2017-12-09T15:43:06.043Z,8
2017-12-09T15:44:27.782Z,8
2017-12-09T15:45:49.775Z,8
2017-12-09T15:47:12.043Z,8
2017-12-09T15:48:34.660Z,8
2017-12-09T15:49:56.381Z,8
2017-12-09T15:51:18.369Z,8
2017-12-09T15:52:40.448Z,8
2017-12-09T15:54:02.594Z,8
2017-12-09T15:55:24.953Z,8
2017-12-09T15:56:46.955Z,8
2017-12-09T15:58:08.927Z,8
2017-12-09T15:59:31.219Z,8
2017-12-09T16:00:52.943Z,8
2017-12-09T16:02:15.282Z,8
2017-12-09T16:03:37.042Z,0
2017-12-09T16:04:59.625Z,0
2017-12-09T16:06:21.747Z,0
2017-12-09T16:07:43.467Z,8
2017-12-09T16:09:05.605Z,8
2017-12-09T16:10:27.284Z,8
2017-12-09T16:11:49.348Z,0
2017-12-09T16:13:11.334Z,0
2017-12-09T16:14:33.606Z,0
2017-12-09T16:15:55.884Z,0
2017-12-09T16:17:18.275Z,0
2017-12-09T16:18:40.040Z,0
2017-12-09T16:20:02.068Z,0
2017-12-09T16:21:23.834Z,0
2017-12-09T16:22:45.906Z,0
2017-12-09T16:24:07.892Z,0
2017-12-09T16:25:30.268Z,0
2017-12-09T16:26:52.035Z,0
2017-12-09T16:28:14.042Z,0
2017-12-09T16:29:36.317Z,0
2017-12-09T16:30:58.687Z,0
2017-12-09T16:32:20.424Z,0
2017-12-09T16:33:42.394Z,0
2017-12-09T16:35:04.384Z,0
2017-12-09T16:36:26.383Z,0
2017-12-09T16:37:48.365Z,0
2017-12-09T16:39:10.637Z,0
2017-12-09T16:40:32.911Z,0
2017-12-09T16:41:54.967Z,0
2017-12-09T16:43:17.036Z,0
2017-12-09T16:44:39.095Z,0
2017-12-09T16:46:00.846Z,0
2017-12-09T16:47:23.094Z,0
2017-12-09T16:48:45.358Z,0
2017-12-09T16:50:07.773Z,0
2017-12-09T16:51:29.485Z,0
2017-12-09T16:52:51.492Z,0
2017-12-09T16:54:13.494Z,0
2017-12-09T16:55:35.810Z,0
2017-12-09T16:56:57.784Z,0
2017-12-09T16:58:19.916Z,0
2017-12-09T16:59:42.186Z,0
2017-12-09T17:01:04.350Z,0
2017-12-09T17:02:26.105Z,0
2017-12-09T17:03:48.152Z,0
2017-12-09T17:05:10.204Z,0
2017-12-09T17:06:32.182Z,0
2017-12-09T17:07:54.566Z,0
2017-12-09T17:09:16.567Z,0
2017-12-09T17:10:38.841Z,0
2017-12-09T17:12:00.675Z,0
2017-12-09T17:13:22.744Z,0
2017-12-09T17:14:44.714Z,0
2017-12-09T17:16:07.015Z,0
2017-12-09T17:17:29.275Z,0
2017-12-09T17:18:51.553Z,0
2017-12-09T17:20:13.574Z,0
2017-12-09T17:21:35.825Z,0
2017-12-09T17:22:57.819Z,0
2017-12-09T17:24:19.845Z,0
2017-12-09T17:25:41.552Z,0
2017-12-09T17:27:03.616Z,0
2017-12-09T17:28:25.450Z,0
2017-12-09T17:29:47.477Z,0
2017-12-09T17:31:08.966Z,0
2017-12-09T17:32:31.336Z,0
2017-12-09T17:33:53.074Z,0
2017-12-09T17:35:15.337Z,0
2017-12-09T17:36:37.334Z,0
2017-12-09T17:37:59.072Z,0
2017-12-09T17:39:21.339Z,0
2017-12-09T17:40:43.683Z,0
2017-12-09T17:42:04.866Z,0
2017-12-09T17:43:27.215Z,0
2017-12-09T17:44:49.194Z,0
2017-12-09T17:46:11.173Z,0
2017-12-09T17:47:33.170Z,0
2017-12-09T17:48:54.616Z,0
2017-12-09T17:50:16.622Z,0
2017-12-09T17:51:38.596Z,0
2017-12-09T17:53:00.605Z,0
2017-12-09T17:54:22.875Z,0
2017-12-09T17:55:45.305Z,0
2017-12-09T17:57:07.544Z,0
2017-12-09T17:58:29.892Z,0
2017-12-09T17:59:52.136Z,0
2017-12-09T18:01:14.266Z,0
2017-12-09T18:02:36.307Z,0
2017-12-09T18:03:58.322Z,0
2017-12-09T18:05:20.635Z,0
2017-12-09T18:06:42.917Z,0
2017-12-09T18:08:04.904Z,0
2017-12-09T18:09:27.224Z,0
2017-12-09T18:10:49.234Z,0
2017-12-09T18:12:11.346Z,0
2017-12-09T18:13:33.603Z,0
2017-12-09T18:14:55.945Z,0
2017-12-09T18:16:18.463Z,0
2017-12-09T18:17:40.909Z,0
2017-12-09T18:19:03.216Z,0
2017-12-09T18:20:25.488Z,0
2017-12-09T18:21:47.778Z,0
2017-12-09T18:23:09.747Z,0
2017-12-09T18:24:31.567Z,0
2017-12-09T18:25:53.557Z,0
2017-12-09T18:27:16.111Z,0
2017-12-09T18:28:37.621Z,0
2017-12-09T18:29:59.716Z,0
2017-12-09T18:31:22.029Z,0
2017-12-09T18:32:44.050Z,0
2017-12-09T18:34:06.149Z,12
2017-12-09T18:35:28.158Z,12
2017-12-09T18:36:50.436Z,12
2017-12-09T18:38:12.823Z,12
2017-12-09T18:39:34.573Z,12
2017-12-09T18:40:56.469Z,12
2017-12-09T18:42:18.225Z,12
2017-12-09T18:43:40.309Z,12
2017-12-09T18:45:02.576Z,12
2017-12-09T18:46:24.412Z,12
2017-12-09T18:47:46.487Z,12
2017-12-09T18:49:08.658Z,12
2017-12-09T18:50:30.365Z,12
2017-12-09T18:51:52.741Z,12
2017-12-09T18:53:14.514Z,12
2017-12-09T18:54:36.340Z,12
2017-12-09T18:55:58.506Z,12
2017-12-09T18:57:20.247Z,12
2017-12-09T18:58:42.084Z,12
2017-12-09T19:00:03.863Z,12
2017-12-09T19:01:25.950Z,12
2017-12-09T19:02:48.375Z,12
2017-12-09T19:04:10.397Z,12
2017-12-09T19:05:33.389Z,12
2017-12-09T19:06:55.390Z,12
2017-12-09T19:08:17.651Z,12
2017-12-09T19:09:39.954Z,12
2017-12-09T19:11:01.786Z,12
2017-12-09T19:12:23.917Z,12
2017-12-09T19:13:47.932Z,12
2017-12-09T19:15:10.519Z,12
2017-12-09T19:16:32.597Z,0
2017-12-09T19:17:54.721Z,0
2017-12-09T19:19:16.780Z,0
2017-12-09T19:20:39.169Z,0